sensor_id;sensor_type;location;lat;lon;timestamp;P1;durP1;ratioP1;P2;durP2;ratioP2
45476;SDS011;31958;51.756;-2.556;2023-05-10T00:00:21;10.45;;;2.40;;
45476;SDS011;31958;51.756;-2.556;2023-05-10T00:02:48;25.00;;;2.95;;
45476;SDS011;31958;51.756;-2.556;2023-05-10T00:05:14;21.77;;;2.28;;
45476;SDS011;31958;51.756;-2.556;2023-05-10T00:07:39;28.67;;;3.20;;
45476;SDS011;31958;51.756;-2.556;2023-05-10T00:10:05;21.90;;;2.45;;
45476;SDS011;31958;51.756;-2.556;2023-05-10T00:12:31;19.35;;;2.00;;
45476;SDS011;31958;51.756;-2.556;2023-05-10T00:14:57;55.42;;;4.35;;
45476;SDS011;31958;51.756;-2.556;2023-05-10T00:17:22;179.65;;;8.02;;
45476;SDS011;31958;51.756;-2.556;2023-05-10T00:19:48;324.55;;;13.80;;
45476;SDS011;31958;51.756;-2.556;2023-05-10T00:22:13;147.50;;;5.35;;
45476;SDS011;31958;51.756;-2.556;2023-05-10T00:24:38;55.67;;;2.65;;
45476;SDS011;31958;51.756;-2.556;2023-05-10T00:27:04;52.97;;;2.67;;
45476;SDS011;31958;51.756;-2.556;2023-05-10T00:29:29;60.25;;;2.78;;
45476;SDS011;31958;51.756;-2.556;2023-05-10T00:31:55;99.28;;;4.05;;
45476;SDS011;31958;51.756;-2.556;2023-05-10T00:34:21;56.45;;;2.78;;
45476;SDS011;31958;51.756;-2.556;2023-05-10T00:36:46;84.45;;;3.40;;
45476;SDS011;31958;51.756;-2.556;2023-05-10T00:39:12;53.08;;;2.30;;
45476;SDS011;31958;51.756;-2.556;2023-05-10T00:41:37;63.35;;;3.42;;
45476;SDS011;31958;51.756;-2.556;2023-05-10T00:44:03;60.03;;;3.60;;
45476;SDS011;31958;51.756;-2.556;2023-05-10T00:46:30;72.65;;;4.15;;
45476;SDS011;31958;51.756;-2.556;2023-05-10T00:48:55;71.28;;;4.05;;
45476;SDS011;31958;51.756;-2.556;2023-05-10T00:51:21;43.78;;;3.22;;
45476;SDS011;31958;51.756;-2.556;2023-05-10T00:53:46;100.00;;;6.05;;
45476;SDS011;31958;51.756;-2.556;2023-05-10T00:56:12;18.35;;;2.00;;
45476;SDS011;31958;51.756;-2.556;2023-05-10T00:58:38;9.50;;;2.15;;
45476;SDS011;31958;51.756;-2.556;2023-05-10T01:01:04;169.35;;;8.50;;
45476;SDS011;31958;51.756;-2.556;2023-05-10T01:03:30;146.30;;;7.95;;
45476;SDS011;31958;51.756;-2.556;2023-05-10T01:05:56;192.25;;;8.10;;
45476;SDS011;31958;51.756;-2.556;2023-05-10T01:08:22;185.82;;;7.40;;
45476;SDS011;31958;51.756;-2.556;2023-05-10T01:10:47;169.60;;;6.00;;
45476;SDS011;31958;51.756;-2.556;2023-05-10T01:13:15;136.40;;;5.68;;
45476;SDS011;31958;51.756;-2.556;2023-05-10T01:15:44;47.65;;;3.10;;
45476;SDS011;31958;51.756;-2.556;2023-05-10T01:18:09;63.63;;;2.92;;
45476;SDS011;31958;51.756;-2.556;2023-05-10T01:20:36;17.65;;;2.13;;
45476;SDS011;31958;51.756;-2.556;2023-05-10T01:23:23;7.75;;;1.98;;
45476;SDS011;31958;51.756;-2.556;2023-05-10T01:34:35;87.38;;;4.13;;
45476;SDS011;31958;51.756;-2.556;2023-05-10T01:37:09;86.72;;;3.53;;
45476;SDS011;31958;51.756;-2.556;2023-05-10T01:39:43;69.50;;;3.05;;
45476;SDS011;31958;51.756;-2.556;2023-05-10T01:42:14;54.80;;;3.17;;
45476;SDS011;31958;51.756;-2.556;2023-05-10T01:44:45;46.40;;;2.45;;
45476;SDS011;31958;51.756;-2.556;2023-05-10T01:47:20;14.15;;;1.73;;
45476;SDS011;31958;51.756;-2.556;2023-05-10T01:49:54;55.58;;;3.00;;
45476;SDS011;31958;51.756;-2.556;2023-05-10T01:52:23;67.95;;;3.88;;
45476;SDS011;31958;51.756;-2.556;2023-05-10T01:54:56;43.95;;;2.33;;
45476;SDS011;31958;51.756;-2.556;2023-05-10T01:57:26;46.85;;;2.60;;
45476;SDS011;31958;51.756;-2.556;2023-05-10T01:59:53;25.83;;;2.13;;
45476;SDS011;31958;51.756;-2.556;2023-05-10T02:02:20;43.28;;;2.63;;
45476;SDS011;31958;51.756;-2.556;2023-05-10T02:04:46;8.32;;;1.30;;
45476;SDS011;31958;51.756;-2.556;2023-05-10T02:07:12;4.40;;;1.38;;
45476;SDS011;31958;51.756;-2.556;2023-05-10T02:09:39;17.48;;;2.15;;
45476;SDS011;31958;51.756;-2.556;2023-05-10T02:12:05;33.58;;;2.10;;
45476;SDS011;31958;51.756;-2.556;2023-05-10T02:14:32;12.93;;;1.55;;
45476;SDS011;31958;51.756;-2.556;2023-05-10T02:16:59;17.45;;;2.03;;
45476;SDS011;31958;51.756;-2.556;2023-05-10T02:19:25;7.28;;;1.58;;
45476;SDS011;31958;51.756;-2.556;2023-05-10T02:21:52;26.45;;;2.30;;
45476;SDS011;31958;51.756;-2.556;2023-05-10T02:24:17;15.85;;;2.03;;
45476;SDS011;31958;51.756;-2.556;2023-05-10T02:26:44;7.30;;;1.77;;
45476;SDS011;31958;51.756;-2.556;2023-05-10T02:29:10;6.88;;;2.40;;
45476;SDS011;31958;51.756;-2.556;2023-05-10T02:31:37;10.40;;;2.03;;
45476;SDS011;31958;51.756;-2.556;2023-05-10T02:34:03;67.53;;;4.07;;
45476;SDS011;31958;51.756;-2.556;2023-05-10T02:36:31;149.20;;;7.47;;
45476;SDS011;31958;51.756;-2.556;2023-05-10T02:38:57;25.40;;;1.98;;
45476;SDS011;31958;51.756;-2.556;2023-05-10T02:41:23;62.42;;;3.25;;
45476;SDS011;31958;51.756;-2.556;2023-05-10T02:43:50;23.40;;;2.45;;
45476;SDS011;31958;51.756;-2.556;2023-05-10T02:46:16;32.65;;;2.40;;
45476;SDS011;31958;51.756;-2.556;2023-05-10T02:48:42;12.30;;;1.92;;
45476;SDS011;31958;51.756;-2.556;2023-05-10T02:51:08;9.38;;;1.60;;
45476;SDS011;31958;51.756;-2.556;2023-05-10T02:53:34;8.07;;;1.60;;
45476;SDS011;31958;51.756;-2.556;2023-05-10T02:56:01;17.55;;;1.73;;
45476;SDS011;31958;51.756;-2.556;2023-05-10T02:58:32;7.80;;;1.35;;
45476;SDS011;31958;51.756;-2.556;2023-05-10T03:00:57;14.00;;;1.95;;
45476;SDS011;31958;51.756;-2.556;2023-05-10T03:03:23;3.75;;;1.77;;
45476;SDS011;31958;51.756;-2.556;2023-05-10T03:05:48;3.65;;;1.42;;
45476;SDS011;31958;51.756;-2.556;2023-05-10T03:08:13;4.88;;;1.65;;
45476;SDS011;31958;51.756;-2.556;2023-05-10T03:10:47;6.53;;;1.60;;
45476;SDS011;31958;51.756;-2.556;2023-05-10T03:13:55;82.30;;;4.05;;
45476;SDS011;31958;51.756;-2.556;2023-05-10T03:16:36;24.00;;;1.80;;
45476;SDS011;31958;51.756;-2.556;2023-05-10T03:19:27;40.17;;;1.70;;
45476;SDS011;31958;51.756;-2.556;2023-05-10T03:21:56;3.30;;;1.23;;
45476;SDS011;31958;51.756;-2.556;2023-05-10T03:24:24;20.13;;;1.65;;
45476;SDS011;31958;51.756;-2.556;2023-05-10T03:26:52;44.97;;;2.20;;
45476;SDS011;31958;51.756;-2.556;2023-05-10T03:29:21;7.50;;;1.48;;
45476;SDS011;31958;51.756;-2.556;2023-05-10T03:31:47;9.63;;;1.52;;
45476;SDS011;31958;51.756;-2.556;2023-05-10T03:34:12;10.75;;;1.73;;
45476;SDS011;31958;51.756;-2.556;2023-05-10T03:36:37;4.30;;;2.13;;
45476;SDS011;31958;51.756;-2.556;2023-05-10T03:39:03;5.80;;;1.27;;
45476;SDS011;31958;51.756;-2.556;2023-05-10T03:41:28;7.20;;;1.40;;
45476;SDS011;31958;51.756;-2.556;2023-05-10T03:43:54;4.70;;;1.50;;
45476;SDS011;31958;51.756;-2.556;2023-05-10T03:46:19;13.13;;;1.75;;
45476;SDS011;31958;51.756;-2.556;2023-05-10T03:48:45;80.55;;;4.13;;
45476;SDS011;31958;51.756;-2.556;2023-05-10T03:51:10;67.90;;;4.78;;
45476;SDS011;31958;51.756;-2.556;2023-05-10T03:53:35;6.00;;;1.45;;
45476;SDS011;31958;51.756;-2.556;2023-05-10T03:56:01;5.78;;;1.52;;
45476;SDS011;31958;51.756;-2.556;2023-05-10T03:58:26;10.60;;;1.35;;
45476;SDS011;31958;51.756;-2.556;2023-05-10T04:00:52;7.30;;;1.77;;
45476;SDS011;31958;51.756;-2.556;2023-05-10T04:03:17;4.57;;;1.40;;
45476;SDS011;31958;51.756;-2.556;2023-05-10T04:05:43;7.18;;;1.42;;
45476;SDS011;31958;51.756;-2.556;2023-05-10T04:08:08;3.42;;;1.20;;
45476;SDS011;31958;51.756;-2.556;2023-05-10T04:10:34;9.65;;;1.40;;
45476;SDS011;31958;51.756;-2.556;2023-05-10T04:12:59;2.50;;;1.50;;
45476;SDS011;31958;51.756;-2.556;2023-05-10T04:15:24;6.40;;;1.30;;
45476;SDS011;31958;51.756;-2.556;2023-05-10T04:17:50;13.48;;;2.17;;
45476;SDS011;31958;51.756;-2.556;2023-05-10T04:20:16;3.65;;;1.20;;
45476;SDS011;31958;51.756;-2.556;2023-05-10T04:22:41;8.30;;;1.48;;
45476;SDS011;31958;51.756;-2.556;2023-05-10T04:25:07;8.20;;;1.55;;
45476;SDS011;31958;51.756;-2.556;2023-05-10T04:27:33;9.45;;;1.42;;
45476;SDS011;31958;51.756;-2.556;2023-05-10T04:29:58;22.08;;;1.92;;
45476;SDS011;31958;51.756;-2.556;2023-05-10T04:32:23;15.10;;;2.13;;
45476;SDS011;31958;51.756;-2.556;2023-05-10T04:34:49;4.22;;;1.38;;
45476;SDS011;31958;51.756;-2.556;2023-05-10T04:37:16;43.03;;;3.00;;
45476;SDS011;31958;51.756;-2.556;2023-05-10T04:39:41;19.45;;;1.52;;
45476;SDS011;31958;51.756;-2.556;2023-05-10T04:42:06;4.63;;;1.48;;
45476;SDS011;31958;51.756;-2.556;2023-05-10T04:44:32;10.35;;;1.50;;
45476;SDS011;31958;51.756;-2.556;2023-05-10T04:46:57;9.80;;;1.65;;
45476;SDS011;31958;51.756;-2.556;2023-05-10T04:49:23;10.13;;;1.75;;
45476;SDS011;31958;51.756;-2.556;2023-05-10T04:51:48;4.38;;;1.27;;
45476;SDS011;31958;51.756;-2.556;2023-05-10T04:54:14;12.82;;;1.65;;
45476;SDS011;31958;51.756;-2.556;2023-05-10T04:56:39;5.85;;;1.45;;
45476;SDS011;31958;51.756;-2.556;2023-05-10T04:59:05;12.93;;;1.58;;
45476;SDS011;31958;51.756;-2.556;2023-05-10T05:01:30;18.13;;;1.50;;
45476;SDS011;31958;51.756;-2.556;2023-05-10T05:03:56;13.13;;;1.63;;
45476;SDS011;31958;51.756;-2.556;2023-05-10T05:06:21;5.47;;;1.45;;
45476;SDS011;31958;51.756;-2.556;2023-05-10T05:08:47;9.40;;;2.15;;
45476;SDS011;31958;51.756;-2.556;2023-05-10T05:11:14;14.10;;;1.40;;
45476;SDS011;31958;51.756;-2.556;2023-05-10T05:13:39;49.17;;;2.65;;
45476;SDS011;31958;51.756;-2.556;2023-05-10T05:16:05;7.43;;;1.42;;
45476;SDS011;31958;51.756;-2.556;2023-05-10T05:18:30;25.90;;;2.25;;
45476;SDS011;31958;51.756;-2.556;2023-05-10T05:20:55;31.40;;;2.10;;
45476;SDS011;31958;51.756;-2.556;2023-05-10T05:23:21;19.70;;;2.13;;
45476;SDS011;31958;51.756;-2.556;2023-05-10T05:25:49;28.00;;;2.80;;
45476;SDS011;31958;51.756;-2.556;2023-05-10T05:28:16;22.00;;;2.08;;
45476;SDS011;31958;51.756;-2.556;2023-05-10T05:30:41;17.08;;;2.00;;
45476;SDS011;31958;51.756;-2.556;2023-05-10T05:33:07;29.55;;;2.72;;
45476;SDS011;31958;51.756;-2.556;2023-05-10T05:35:32;44.65;;;2.85;;
45476;SDS011;31958;51.756;-2.556;2023-05-10T05:37:58;68.65;;;4.00;;
45476;SDS011;31958;51.756;-2.556;2023-05-10T05:40:23;227.82;;;11.32;;
45476;SDS011;31958;51.756;-2.556;2023-05-10T05:42:49;277.48;;;14.23;;
45476;SDS011;31958;51.756;-2.556;2023-05-10T05:45:14;605.40;;;29.83;;
45476;SDS011;31958;51.756;-2.556;2023-05-10T05:47:40;89.15;;;4.38;;
45476;SDS011;31958;51.756;-2.556;2023-05-10T05:50:06;350.30;;;15.73;;
45476;SDS011;31958;51.756;-2.556;2023-05-10T05:52:31;95.00;;;4.13;;
45476;SDS011;31958;51.756;-2.556;2023-05-10T05:54:57;697.15;;;31.55;;
45476;SDS011;31958;51.756;-2.556;2023-05-10T05:57:22;704.45;;;29.92;;
45476;SDS011;31958;51.756;-2.556;2023-05-10T05:59:48;1010.03;;;41.30;;
45476;SDS011;31958;51.756;-2.556;2023-05-10T06:02:13;696.10;;;27.90;;
45476;SDS011;31958;51.756;-2.556;2023-05-10T06:04:39;673.67;;;30.27;;
45476;SDS011;31958;51.756;-2.556;2023-05-10T06:07:04;255.70;;;10.25;;
45476;SDS011;31958;51.756;-2.556;2023-05-10T06:09:29;312.70;;;12.50;;
45476;SDS011;31958;51.756;-2.556;2023-05-10T06:11:55;11.10;;;1.30;;
45476;SDS011;31958;51.756;-2.556;2023-05-10T06:14:20;254.73;;;12.63;;
45476;SDS011;31958;51.756;-2.556;2023-05-10T06:16:46;64.50;;;3.08;;
45476;SDS011;31958;51.756;-2.556;2023-05-10T06:19:11;6.30;;;1.00;;
45476;SDS011;31958;51.756;-2.556;2023-05-10T06:21:37;5.22;;;1.05;;
45476;SDS011;31958;51.756;-2.556;2023-05-10T06:24:02;12.90;;;1.23;;
45476;SDS011;31958;51.756;-2.556;2023-05-10T06:26:28;2.20;;;0.93;;
45476;SDS011;31958;51.756;-2.556;2023-05-10T06:28:53;1.63;;;0.80;;
45476;SDS011;31958;51.756;-2.556;2023-05-10T06:31:19;3.22;;;1.00;;
45476;SDS011;31958;51.756;-2.556;2023-05-10T06:33:44;2.53;;;0.88;;
45476;SDS011;31958;51.756;-2.556;2023-05-10T06:36:10;1.85;;;0.90;;
45476;SDS011;31958;51.756;-2.556;2023-05-10T06:38:35;3.55;;;0.82;;
45476;SDS011;31958;51.756;-2.556;2023-05-10T06:41:01;1.63;;;0.80;;
45476;SDS011;31958;51.756;-2.556;2023-05-10T06:43:26;1.75;;;0.90;;
45476;SDS011;31958;51.756;-2.556;2023-05-10T06:45:53;2.35;;;1.00;;
45476;SDS011;31958;51.756;-2.556;2023-05-10T06:48:19;2.58;;;0.80;;
45476;SDS011;31958;51.756;-2.556;2023-05-10T06:50:44;3.85;;;1.50;;
45476;SDS011;31958;51.756;-2.556;2023-05-10T06:53:09;3.58;;;1.40;;
45476;SDS011;31958;51.756;-2.556;2023-05-10T06:55:36;3.67;;;1.30;;
45476;SDS011;31958;51.756;-2.556;2023-05-10T06:58:02;4.60;;;1.20;;
45476;SDS011;31958;51.756;-2.556;2023-05-10T07:00:27;3.25;;;1.10;;
45476;SDS011;31958;51.756;-2.556;2023-05-10T07:02:52;4.38;;;0.90;;
45476;SDS011;31958;51.756;-2.556;2023-05-10T07:05:18;4.13;;;1.10;;
45476;SDS011;31958;51.756;-2.556;2023-05-10T07:07:43;1.73;;;1.10;;
45476;SDS011;31958;51.756;-2.556;2023-05-10T07:10:09;4.07;;;0.93;;
45476;SDS011;31958;51.756;-2.556;2023-05-10T07:12:34;2.25;;;1.30;;
45476;SDS011;31958;51.756;-2.556;2023-05-10T07:15:00;2.65;;;1.10;;
45476;SDS011;31958;51.756;-2.556;2023-05-10T07:17:25;6.35;;;1.60;;
45476;SDS011;31958;51.756;-2.556;2023-05-10T07:19:51;2.85;;;1.67;;
45476;SDS011;31958;51.756;-2.556;2023-05-10T07:22:16;4.70;;;1.33;;
45476;SDS011;31958;51.756;-2.556;2023-05-10T07:24:42;10.18;;;2.30;;
45476;SDS011;31958;51.756;-2.556;2023-05-10T07:27:07;7.57;;;1.90;;
45476;SDS011;31958;51.756;-2.556;2023-05-10T07:29:33;5.68;;;1.65;;
45476;SDS011;31958;51.756;-2.556;2023-05-10T07:31:59;6.32;;;1.52;;
45476;SDS011;31958;51.756;-2.556;2023-05-10T07:34:25;5.18;;;1.40;;
45476;SDS011;31958;51.756;-2.556;2023-05-10T07:36:51;8.32;;;1.80;;
45476;SDS011;31958;51.756;-2.556;2023-05-10T07:39:16;4.10;;;1.45;;
45476;SDS011;31958;51.756;-2.556;2023-05-10T07:41:42;8.10;;;1.88;;
45476;SDS011;31958;51.756;-2.556;2023-05-10T07:44:07;10.05;;;1.60;;
45476;SDS011;31958;51.756;-2.556;2023-05-10T07:46:32;9.80;;;1.90;;
45476;SDS011;31958;51.756;-2.556;2023-05-10T07:48:58;14.52;;;1.70;;
45476;SDS011;31958;51.756;-2.556;2023-05-10T07:51:23;7.90;;;2.20;;
45476;SDS011;31958;51.756;-2.556;2023-05-10T07:53:49;6.70;;;1.65;;
45476;SDS011;31958;51.756;-2.556;2023-05-10T07:56:21;5.15;;;1.65;;
45476;SDS011;31958;51.756;-2.556;2023-05-10T07:58:52;7.28;;;1.38;;
45476;SDS011;31958;51.756;-2.556;2023-05-10T08:01:18;6.57;;;1.73;;
45476;SDS011;31958;51.756;-2.556;2023-05-10T08:03:43;4.55;;;1.90;;
45476;SDS011;31958;51.756;-2.556;2023-05-10T08:06:09;9.20;;;1.80;;
45476;SDS011;31958;51.756;-2.556;2023-05-10T08:08:34;6.68;;;1.80;;
45476;SDS011;31958;51.756;-2.556;2023-05-10T08:10:59;5.07;;;1.33;;
45476;SDS011;31958;51.756;-2.556;2023-05-10T08:13:25;5.47;;;1.60;;
45476;SDS011;31958;51.756;-2.556;2023-05-10T08:15:50;6.40;;;1.50;;
45476;SDS011;31958;51.756;-2.556;2023-05-10T08:18:18;7.85;;;1.55;;
45476;SDS011;31958;51.756;-2.556;2023-05-10T08:20:43;4.75;;;1.40;;
45476;SDS011;31958;51.756;-2.556;2023-05-10T08:23:09;7.20;;;1.27;;
45476;SDS011;31958;51.756;-2.556;2023-05-10T08:25:34;6.10;;;1.63;;
45476;SDS011;31958;51.756;-2.556;2023-05-10T08:27:59;7.20;;;1.52;;
45476;SDS011;31958;51.756;-2.556;2023-05-10T08:30:25;7.50;;;1.30;;
45476;SDS011;31958;51.756;-2.556;2023-05-10T08:32:50;8.15;;;1.40;;
45476;SDS011;31958;51.756;-2.556;2023-05-10T08:35:16;8.48;;;1.60;;
45476;SDS011;31958;51.756;-2.556;2023-05-10T08:37:41;6.30;;;1.40;;
45476;SDS011;31958;51.756;-2.556;2023-05-10T08:40:06;6.13;;;1.65;;
45476;SDS011;31958;51.756;-2.556;2023-05-10T08:42:36;5.22;;;1.52;;
45476;SDS011;31958;51.756;-2.556;2023-05-10T08:45:02;7.72;;;1.40;;
45476;SDS011;31958;51.756;-2.556;2023-05-10T08:47:28;6.07;;;1.65;;
45476;SDS011;31958;51.756;-2.556;2023-05-10T08:49:54;7.85;;;1.33;;
45476;SDS011;31958;51.756;-2.556;2023-05-10T08:52:19;3.80;;;1.15;;
45476;SDS011;31958;51.756;-2.556;2023-05-10T08:54:45;5.22;;;1.17;;
45476;SDS011;31958;51.756;-2.556;2023-05-10T08:57:11;5.28;;;1.13;;
45476;SDS011;31958;51.756;-2.556;2023-05-10T08:59:37;6.13;;;1.10;;
45476;SDS011;31958;51.756;-2.556;2023-05-10T09:02:04;7.97;;;1.63;;
45476;SDS011;31958;51.756;-2.556;2023-05-10T09:04:30;3.50;;;1.30;;
45476;SDS011;31958;51.756;-2.556;2023-05-10T09:06:56;7.68;;;1.73;;
45476;SDS011;31958;51.756;-2.556;2023-05-10T09:09:21;10.55;;;1.70;;
45476;SDS011;31958;51.756;-2.556;2023-05-10T09:11:48;4.47;;;1.40;;
45476;SDS011;31958;51.756;-2.556;2023-05-10T09:14:14;5.32;;;1.25;;
45476;SDS011;31958;51.756;-2.556;2023-05-10T09:16:40;6.03;;;1.42;;
45476;SDS011;31958;51.756;-2.556;2023-05-10T09:19:06;5.45;;;1.40;;
45476;SDS011;31958;51.756;-2.556;2023-05-10T09:21:34;6.70;;;1.67;;
45476;SDS011;31958;51.756;-2.556;2023-05-10T09:24:03;4.43;;;1.08;;
45476;SDS011;31958;51.756;-2.556;2023-05-10T09:26:30;5.95;;;1.60;;
45476;SDS011;31958;51.756;-2.556;2023-05-10T09:28:56;3.95;;;1.65;;
45476;SDS011;31958;51.756;-2.556;2023-05-10T09:31:22;6.82;;;1.30;;
45476;SDS011;31958;51.756;-2.556;2023-05-10T09:33:50;6.25;;;1.33;;
45476;SDS011;31958;51.756;-2.556;2023-05-10T09:36:15;4.25;;;1.17;;
45476;SDS011;31958;51.756;-2.556;2023-05-10T09:38:44;5.05;;;1.05;;
45476;SDS011;31958;51.756;-2.556;2023-05-10T09:43:43;5.53;;;1.30;;
45476;SDS011;31958;51.756;-2.556;2023-05-10T09:46:09;5.40;;;1.35;;
45476;SDS011;31958;51.756;-2.556;2023-05-10T09:48:39;5.93;;;1.20;;
45476;SDS011;31958;51.756;-2.556;2023-05-10T09:51:07;4.95;;;1.15;;
45476;SDS011;31958;51.756;-2.556;2023-05-10T09:53:32;4.03;;;1.10;;
45476;SDS011;31958;51.756;-2.556;2023-05-10T09:55:58;4.85;;;1.48;;
45476;SDS011;31958;51.756;-2.556;2023-05-10T09:58:23;5.65;;;1.13;;
45476;SDS011;31958;51.756;-2.556;2023-05-10T10:00:48;7.55;;;1.17;;
45476;SDS011;31958;51.756;-2.556;2023-05-10T10:03:17;3.42;;;1.20;;
45476;SDS011;31958;51.756;-2.556;2023-05-10T10:05:44;4.45;;;1.88;;
45476;SDS011;31958;51.756;-2.556;2023-05-10T10:08:11;5.28;;;1.25;;
45476;SDS011;31958;51.756;-2.556;2023-05-10T10:10:37;7.18;;;1.30;;
45476;SDS011;31958;51.756;-2.556;2023-05-10T10:13:05;6.22;;;1.52;;
45476;SDS011;31958;51.756;-2.556;2023-05-10T10:15:30;4.63;;;1.10;;
45476;SDS011;31958;51.756;-2.556;2023-05-10T10:17:57;7.55;;;1.50;;
45476;SDS011;31958;51.756;-2.556;2023-05-10T10:20:24;5.68;;;1.20;;
45476;SDS011;31958;51.756;-2.556;2023-05-10T10:22:50;4.20;;;1.08;;
45476;SDS011;31958;51.756;-2.556;2023-05-10T10:25:17;6.45;;;1.40;;
45476;SDS011;31958;51.756;-2.556;2023-05-10T10:33:22;4.60;;;1.23;;
45476;SDS011;31958;51.756;-2.556;2023-05-10T10:35:57;3.65;;;1.00;;
45476;SDS011;31958;51.756;-2.556;2023-05-10T10:38:24;4.05;;;1.08;;
45476;SDS011;31958;51.756;-2.556;2023-05-10T10:41:01;4.75;;;1.10;;
45476;SDS011;31958;51.756;-2.556;2023-05-10T10:43:28;6.07;;;1.20;;
45476;SDS011;31958;51.756;-2.556;2023-05-10T10:48:39;3.50;;;0.93;;
45476;SDS011;31958;51.756;-2.556;2023-05-10T10:51:05;18.85;;;1.52;;
45476;SDS011;31958;51.756;-2.556;2023-05-10T10:53:31;5.53;;;1.58;;
45476;SDS011;31958;51.756;-2.556;2023-05-10T10:56:07;2.65;;;0.98;;
45476;SDS011;31958;51.756;-2.556;2023-05-10T10:58:34;3.42;;;1.00;;
45476;SDS011;31958;51.756;-2.556;2023-05-10T11:01:34;4.60;;;1.20;;
45476;SDS011;31958;51.756;-2.556;2023-05-10T11:06:29;6.18;;;1.23;;
45476;SDS011;31958;51.756;-2.556;2023-05-10T11:08:56;4.63;;;1.02;;
45476;SDS011;31958;51.756;-2.556;2023-05-10T11:11:22;7.50;;;1.23;;
45476;SDS011;31958;51.756;-2.556;2023-05-10T11:13:47;2.97;;;0.98;;
45476;SDS011;31958;51.756;-2.556;2023-05-10T11:21:27;4.25;;;1.17;;
45476;SDS011;31958;51.756;-2.556;2023-05-10T11:23:54;4.95;;;1.40;;
45476;SDS011;31958;51.756;-2.556;2023-05-10T11:26:24;3.03;;;1.33;;
45476;SDS011;31958;51.756;-2.556;2023-05-10T11:28:52;7.38;;;1.50;;
45476;SDS011;31958;51.756;-2.556;2023-05-10T11:31:20;3.88;;;1.10;;
45476;SDS011;31958;51.756;-2.556;2023-05-10T11:33:47;3.45;;;1.65;;
45476;SDS011;31958;51.756;-2.556;2023-05-10T11:36:16;5.15;;;1.20;;
45476;SDS011;31958;51.756;-2.556;2023-05-10T11:38:43;6.07;;;1.30;;
45476;SDS011;31958;51.756;-2.556;2023-05-10T11:41:08;4.45;;;1.25;;
45476;SDS011;31958;51.756;-2.556;2023-05-10T11:43:35;6.85;;;1.17;;
45476;SDS011;31958;51.756;-2.556;2023-05-10T11:46:03;8.38;;;1.27;;
45476;SDS011;31958;51.756;-2.556;2023-05-10T11:48:32;5.63;;;0.98;;
45476;SDS011;31958;51.756;-2.556;2023-05-10T11:50:57;4.75;;;1.05;;
45476;SDS011;31958;51.756;-2.556;2023-05-10T11:53:25;2.35;;;0.93;;
45476;SDS011;31958;51.756;-2.556;2023-05-10T11:55:51;3.58;;;1.05;;
45476;SDS011;31958;51.756;-2.556;2023-05-10T11:58:17;3.67;;;1.00;;
45476;SDS011;31958;51.756;-2.556;2023-05-10T12:00:43;3.60;;;1.48;;
45476;SDS011;31958;51.756;-2.556;2023-05-10T12:03:09;5.63;;;1.35;;
45476;SDS011;31958;51.756;-2.556;2023-05-10T12:05:35;4.60;;;1.20;;
45476;SDS011;31958;51.756;-2.556;2023-05-10T12:11:08;2.40;;;0.93;;
45476;SDS011;31958;51.756;-2.556;2023-05-10T12:13:39;5.95;;;1.30;;
45476;SDS011;31958;51.756;-2.556;2023-05-10T12:16:22;2.22;;;0.80;;
45476;SDS011;31958;51.756;-2.556;2023-05-10T12:18:49;2.88;;;1.10;;
45476;SDS011;31958;51.756;-2.556;2023-05-10T12:21:16;3.60;;;0.68;;
45476;SDS011;31958;51.756;-2.556;2023-05-10T12:23:41;2.60;;;0.90;;
45476;SDS011;31958;51.756;-2.556;2023-05-10T12:26:10;2.45;;;0.90;;
45476;SDS011;31958;51.756;-2.556;2023-05-10T12:28:36;2.30;;;0.85;;
45476;SDS011;31958;51.756;-2.556;2023-05-10T12:31:02;3.20;;;1.10;;
45476;SDS011;31958;51.756;-2.556;2023-05-10T12:33:34;5.32;;;1.60;;
45476;SDS011;31958;51.756;-2.556;2023-05-10T12:36:04;9.15;;;1.50;;
45476;SDS011;31958;51.756;-2.556;2023-05-10T12:38:36;8.75;;;1.77;;
45476;SDS011;31958;51.756;-2.556;2023-05-10T12:41:17;8.40;;;1.50;;
45476;SDS011;31958;51.756;-2.556;2023-05-10T12:43:43;8.20;;;1.42;;
45476;SDS011;31958;51.756;-2.556;2023-05-10T12:46:14;5.18;;;1.50;;
45476;SDS011;31958;51.756;-2.556;2023-05-10T12:48:43;4.70;;;1.60;;
45476;SDS011;31958;51.756;-2.556;2023-05-10T12:51:09;14.15;;;1.85;;
45476;SDS011;31958;51.756;-2.556;2023-05-10T12:53:36;6.30;;;1.60;;
45476;SDS011;31958;51.756;-2.556;2023-05-10T12:56:02;6.60;;;1.88;;
45476;SDS011;31958;51.756;-2.556;2023-05-10T12:58:27;5.68;;;1.50;;
45476;SDS011;31958;51.756;-2.556;2023-05-10T13:00:53;4.82;;;1.50;;
45476;SDS011;31958;51.756;-2.556;2023-05-10T13:03:18;5.47;;;1.60;;
45476;SDS011;31958;51.756;-2.556;2023-05-10T13:05:44;5.55;;;2.10;;
45476;SDS011;31958;51.756;-2.556;2023-05-10T13:08:10;5.38;;;1.35;;
45476;SDS011;31958;51.756;-2.556;2023-05-10T13:10:35;8.25;;;1.40;;
45476;SDS011;31958;51.756;-2.556;2023-05-10T13:13:00;3.55;;;1.27;;
45476;SDS011;31958;51.756;-2.556;2023-05-10T13:15:26;5.60;;;0.95;;
45476;SDS011;31958;51.756;-2.556;2023-05-10T13:17:53;4.97;;;0.90;;
45476;SDS011;31958;51.756;-2.556;2023-05-10T13:20:19;4.32;;;1.10;;
45476;SDS011;31958;51.756;-2.556;2023-05-10T13:22:44;4.80;;;0.90;;
45476;SDS011;31958;51.756;-2.556;2023-05-10T13:25:10;2.67;;;0.60;;
45476;SDS011;31958;51.756;-2.556;2023-05-10T13:27:36;2.42;;;0.70;;
45476;SDS011;31958;51.756;-2.556;2023-05-10T13:30:02;1.92;;;0.82;;
45476;SDS011;31958;51.756;-2.556;2023-05-10T13:32:28;4.72;;;0.85;;
45476;SDS011;31958;51.756;-2.556;2023-05-10T13:34:54;1.73;;;0.75;;
45476;SDS011;31958;51.756;-2.556;2023-05-10T13:37:20;2.05;;;0.82;;
45476;SDS011;31958;51.756;-2.556;2023-05-10T13:39:46;2.60;;;0.80;;
45476;SDS011;31958;51.756;-2.556;2023-05-10T13:42:11;1.38;;;0.75;;
45476;SDS011;31958;51.756;-2.556;2023-05-10T13:44:37;3.28;;;0.98;;
45476;SDS011;31958;51.756;-2.556;2023-05-10T13:47:03;3.85;;;0.90;;
45476;SDS011;31958;51.756;-2.556;2023-05-10T13:49:29;2.78;;;0.98;;
45476;SDS011;31958;51.756;-2.556;2023-05-10T13:51:54;2.15;;;0.82;;
45476;SDS011;31958;51.756;-2.556;2023-05-10T13:54:20;2.72;;;0.90;;
45476;SDS011;31958;51.756;-2.556;2023-05-10T13:56:47;5.55;;;1.13;;
45476;SDS011;31958;51.756;-2.556;2023-05-10T13:59:13;2.90;;;1.00;;
45476;SDS011;31958;51.756;-2.556;2023-05-10T14:01:39;2.80;;;1.10;;
45476;SDS011;31958;51.756;-2.556;2023-05-10T14:04:07;5.43;;;1.70;;
45476;SDS011;31958;51.756;-2.556;2023-05-10T14:06:35;4.32;;;1.50;;
45476;SDS011;31958;51.756;-2.556;2023-05-10T14:09:01;3.63;;;1.10;;
45476;SDS011;31958;51.756;-2.556;2023-05-10T14:11:27;2.70;;;0.90;;
45476;SDS011;31958;51.756;-2.556;2023-05-10T14:13:52;2.60;;;0.85;;
45476;SDS011;31958;51.756;-2.556;2023-05-10T14:16:18;3.25;;;0.90;;
45476;SDS011;31958;51.756;-2.556;2023-05-10T14:18:44;2.38;;;0.98;;
45476;SDS011;31958;51.756;-2.556;2023-05-10T14:21:09;4.03;;;0.90;;
45476;SDS011;31958;51.756;-2.556;2023-05-10T14:23:34;2.10;;;0.90;;
45476;SDS011;31958;51.756;-2.556;2023-05-10T14:26:00;4.43;;;1.00;;
45476;SDS011;31958;51.756;-2.556;2023-05-10T14:28:26;5.82;;;0.90;;
45476;SDS011;31958;51.756;-2.556;2023-05-10T14:30:51;3.80;;;0.90;;
45476;SDS011;31958;51.756;-2.556;2023-05-10T14:33:17;2.65;;;1.10;;
45476;SDS011;31958;51.756;-2.556;2023-05-10T14:35:42;3.95;;;1.10;;
45476;SDS011;31958;51.756;-2.556;2023-05-10T14:38:08;2.90;;;0.95;;
45476;SDS011;31958;51.756;-2.556;2023-05-10T14:40:33;5.15;;;1.02;;
45476;SDS011;31958;51.756;-2.556;2023-05-10T14:42:59;4.75;;;0.95;;
45476;SDS011;31958;51.756;-2.556;2023-05-10T14:45:25;3.55;;;1.25;;
45476;SDS011;31958;51.756;-2.556;2023-05-10T14:47:51;4.15;;;1.17;;
45476;SDS011;31958;51.756;-2.556;2023-05-10T14:50:16;2.53;;;0.95;;
45476;SDS011;31958;51.756;-2.556;2023-05-10T14:52:42;4.55;;;1.20;;
45476;SDS011;31958;51.756;-2.556;2023-05-10T14:55:08;5.38;;;1.75;;